Time;durP1;ratioP1;P1;durP2;ratioP2;P2;SDS_P1;SDS_P2;PMS_P1;PMS_P2;Temp;Humidity;BMP_temperature;BMP_pressure;BME280_temperature;BME280_humidity;BME280_pressure;Samples;Min_cycle;Max_cycle;Signal;HPM_P1;HPM_P2
2022/08/08 00:01:11;;;;;;;3.17;2.33;;;;;;;15.36;61.89;102380.03;4993058;28;20030;-86
2022/08/08 00:03:46;;;;;;;3.47;2.30;;;;;;;15.32;62.35;102388.78;4993315;28;20027;-87
2022/08/08 00:06:19;;;;;;;2.63;2.40;;;;;;;15.24;62.46;102386.25;4993414;28;20467;-87
2022/08/08 00:08:57;;;;;;;2.50;2.30;;;;;;;15.19;62.55;102390.66;4992960;28;20038;-87
2022/08/08 00:11:40;;;;;;;3.03;2.30;;;;;;;15.13;62.39;102391.59;4993795;28;20023;-87
2022/08/08 00:14:29;;;;;;;2.65;2.30;;;;;;;15.08;62.50;102385.53;4992963;28;20471;-87
2022/08/08 00:17:02;;;;;;;4.05;2.40;;;;;;;15.07;63.16;102393.41;4992882;28;20033;-87
2022/08/08 00:19:43;;;;;;;2.65;2.40;;;;;;;15.04;62.77;102388.19;4993565;28;20085;-87
2022/08/08 00:22:21;;;;;;;3.03;2.50;;;;;;;15.00;63.00;102386.47;4993318;28;20500;-87
2022/08/08 00:24:59;;;;;;;4.00;2.45;;;;;;;14.96;63.06;102391.75;4993772;28;20061;-86
2022/08/08 00:27:26;;;;;;;3.47;2.70;;;;;;;14.91;63.03;102383.06;4993430;28;20545;-87
2022/08/08 00:29:58;;;;;;;3.00;2.40;;;;;;;14.86;63.46;102392.69;4992765;28;20058;-86
2022/08/08 00:32:44;;;;;;;2.80;2.45;;;;;;;14.81;63.80;102394.47;4993634;28;20022;-87
2022/08/08 00:35:27;;;;;;;4.03;2.55;;;;;;;14.77;63.89;102398.88;4993042;28;20038;-87
2022/08/08 00:38:06;;;;;;;2.67;2.47;;;;;;;14.74;63.91;102405.88;4992892;28;20035;-86
2022/08/08 00:40:38;;;;;;;3.55;2.53;;;;;;;14.70;64.08;102401.53;4993516;28;20081;-87
2022/08/08 00:43:25;;;;;;;3.90;2.70;;;;;;;14.69;64.31;102397.19;4993080;28;20026;-87
2022/08/08 00:46:25;;;;;;;3.80;2.70;;;;;;;14.66;64.19;102396.31;4993232;28;20045;-87
2022/08/08 00:49:02;;;;;;;2.90;2.60;;;;;;;14.62;64.36;102404.19;4897300;29;20029;-88
2022/08/08 00:52:06;;;;;;;3.40;2.60;;;;;;;14.52;64.65;102393.78;4983678;28;20026;-87
2022/08/08 00:54:40;;;;;;;3.25;2.50;;;;;;;14.47;64.85;102392.09;4996784;28;20037;-87
2022/08/08 00:57:45;;;;;;;2.95;2.53;;;;;;;14.45;65.00;102388.63;4996656;28;20538;-87
2022/08/08 01:00:18;;;;;;;3.40;2.70;;;;;;;14.41;65.01;102386.94;4996968;28;20491;-87
2022/08/08 01:03:29;;;;;;;3.78;2.75;;;;;;;14.40;65.17;102382.56;4996930;28;20030;-87
2022/08/08 01:06:26;;;;;;;4.72;2.67;;;;;;;14.39;65.18;102373.84;4996238;28;20195;-87
2022/08/08 01:08:54;;;;;;;2.90;2.60;;;;;;;14.39;65.21;102386.91;4979706;28;20399;-86
2022/08/08 01:11:47;;;;;;;2.90;2.60;;;;;;;14.36;65.17;102379.97;4996891;28;20458;-87
2022/08/08 01:14:25;;;;;;;2.97;2.60;;;;;;;14.33;65.71;102376.53;4996837;28;20479;-87
2022/08/08 01:17:14;;;;;;;3.55;2.63;;;;;;;14.30;65.83;102377.38;4996486;28;20426;-86
2022/08/08 01:20:13;;;;;;;3.08;2.70;;;;;;;14.26;66.13;102375.69;4995311;28;20041;-87
2022/08/08 01:23:14;;;;;;;3.63;2.85;;;;;;;14.23;65.84;102373.09;4996764;28;20049;-87
2022/08/08 01:26:18;;;;;;;4.93;3.03;;;;;;;14.21;66.15;102375.72;4964508;28;20125;-86
2022/08/08 01:29:04;;;;;;;3.35;2.65;;;;;;;14.18;66.08;102378.34;4996042;28;20463;-87
2022/08/08 01:32:07;;;;;;;3.47;2.55;;;;;;;14.13;66.17;102377.50;4996416;28;20022;-87
2022/08/08 01:34:56;;;;;;;2.97;2.63;;;;;;;14.09;66.49;102372.28;4995832;28;20053;-87
2022/08/08 01:37:59;;;;;;;3.45;2.60;;;;;;;14.07;66.31;102369.69;4995526;28;20022;-87
2022/08/08 01:40:53;;;;;;;3.80;2.80;;;;;;;14.05;66.46;102367.13;4995645;28;20036;-87
2022/08/08 01:43:24;;;;;;;4.50;2.95;;;;;;;14.04;66.72;102381.03;4995863;28;20050;-87
2022/08/08 01:45:49;;;;;;;3.63;2.92;;;;;;;14.02;66.61;102377.56;4995804;28;20027;-86
2022/08/08 01:48:38;;;;;;;3.13;2.60;;;;;;;14.00;66.84;102376.69;4995298;28;20026;-87
2022/08/08 01:51:09;;;;;;;4.25;2.63;;;;;;;13.98;66.79;102372.38;4995830;28;20038;-86
2022/08/08 01:53:43;;;;;;;3.17;2.50;;;;;;;13.96;66.81;102368.91;4976892;28;20027;-87
2022/08/08 01:56:27;;;;;;;5.00;2.78;;;;;;;13.92;67.12;102373.25;4975199;28;20050;-87
2022/08/08 01:59:07;;;;;;;3.67;2.90;;;;;;;13.90;67.07;102377.63;4976212;28;20407;-87
2022/08/08 02:01:59;;;;;;;3.50;2.88;;;;;;;13.87;67.06;102378.50;4975155;28;20074;-87
2022/08/08 02:05:04;;;;;;;3.55;2.70;;;;;;;13.85;67.29;102387.19;4994392;28;20030;-85
2022/08/08 02:08:08;;;;;;;3.30;2.70;;;;;;;13.81;67.22;102382.88;4961735;28;20104;-87
2022/08/08 02:11:01;;;;;;;3.42;2.70;;;;;;;13.78;67.70;102381.16;4995906;28;20030;-88
2022/08/08 02:13:34;;;;;;;4.10;2.72;;;;;;;13.74;67.65;102375.06;4995469;28;20038;-87
2022/08/08 02:16:02;;;;;;;3.78;2.80;;;;;;;13.73;67.47;102380.31;4994514;28;20026;-87
2022/08/08 02:18:38;;;;;;;4.40;2.85;;;;;;;13.71;67.71;102385.53;4995474;28;20458;-86
2022/08/08 02:24:37;;;;;;;3.70;2.80;;;;;;;13.68;68.03;102374.25;4975685;28;20045;-87
2022/08/08 02:27:25;;;;;;;3.65;2.90;;;;;;;13.66;68.21;102378.59;4975138;28;20411;-87
2022/08/08 02:30:05;;;;;;;3.33;2.67;;;;;;;13.62;68.17;102377.75;4975012;28;20038;-86
2022/08/08 02:33:01;;;;;;;3.40;2.70;;;;;;;13.61;68.30;102381.22;4980443;28;20030;-87
2022/08/08 02:35:30;;;;;;;;;;;;;;;13.57;68.66;102380.34;4995340;28;20034;-87
2022/08/08 02:38:20;;;;;;;4.22;3.00;;;;;;;13.53;68.56;102378.63;4994007;28;19917;-87
2022/08/08 02:41:13;;;;;;;3.72;2.83;;;;;;;13.50;68.43;102373.41;4995126;28;20497;-87
2022/08/08 02:44:15;;;;;;;4.78;2.80;;;;;;;13.46;68.92;102370.81;4994311;28;20526;-87
2022/08/08 02:46:46;;;;;;;2.95;2.55;;;;;;;13.39;68.60;102375.16;4994720;28;20018;-87
2022/08/08 02:49:36;;;;;;;3.53;2.72;;;;;;;13.37;69.00;102375.19;4987798;28;20511;-87
2022/08/08 02:52:24;;;;;;;3.10;2.60;;;;;;;13.33;69.33;102381.25;4974698;28;20027;-87
2022/08/08 02:55:31;;;;;;;3.50;2.70;;;;;;;13.29;69.31;102375.19;4974706;28;20035;-86
2022/08/08 02:58:17;;;;;;;3.25;2.70;;;;;;;13.28;69.07;102383.03;4949871;28;20510;-87
2022/08/08 03:01:03;;;;;;;;;;;;;;;13.24;69.21;102378.69;4975711;28;20033;-87
2022/08/08 03:04:03;;;;;;;4.15;3.17;;;;;;;13.23;69.50;102376.94;4974888;28;19957;-87
2022/08/08 03:06:29;;;;;;;4.88;3.00;;;;;;;13.21;68.98;102382.16;4980161;28;20030;-87
2022/08/08 03:09:38;;;;;;;4.37;3.10;;;;;;;13.18;69.60;102383.88;4994479;28;20030;-87
2022/08/08 03:12:27;;;;;;;4.15;3.03;;;;;;;13.15;69.97;102378.69;4993377;28;20050;-87
2022/08/08 03:15:11;;;;;;;3.25;2.55;;;;;;;13.11;69.72;102376.09;4994403;28;20097;-87
2022/08/08 03:18:10;;;;;;;3.47;2.67;;;;;;;13.09;70.01;102383.03;4994271;28;20117;-87
2022/08/08 03:20:43;;;;;;;4.68;3.10;;;;;;;13.07;69.76;102382.16;4960107;28;20041;-86
2022/08/08 03:23:09;;;;;;;3.72;2.95;;;;;;;13.05;69.60;102383.91;4994336;28;20128;-87
2022/08/08 03:25:35;;;;;;;4.63;3.17;;;;;;;13.03;69.85;102383.06;4993648;28;20495;-87
2022/08/08 03:28:11;;;;;;;3.88;2.90;;;;;;;12.98;70.19;102387.38;4993621;28;20046;-87
2022/08/08 03:30:36;;;;;;;3.00;2.67;;;;;;;12.94;70.34;102393.47;4993554;28;20042;-87
2022/08/08 03:33:17;;;;;;;4.53;3.00;;;;;;;12.91;70.26;102396.09;4992978;28;20114;-88
2022/08/08 03:35:43;;;;;;;4.00;3.00;;;;;;;12.89;70.38;102395.22;4994472;28;20113;-87
2022/08/08 03:38:09;;;;;;;3.65;2.83;;;;;;;12.88;70.36;102391.75;4993500;28;20057;-88
2022/08/08 03:40:34;;;;;;;4.10;3.10;;;;;;;12.84;70.44;102392.59;4992872;28;20038;-87
2022/08/08 03:43:00;;;;;;;3.97;3.10;;;;;;;12.82;70.52;102394.34;4994112;28;20471;-88
2022/08/08 03:45:27;;;;;;;3.57;3.00;;;;;;;12.81;70.59;102395.19;4994534;28;20026;-87
2022/08/08 03:48:02;;;;;;;3.88;3.00;;;;;;;12.80;70.46;102396.97;4992698;28;20034;-87
2022/08/08 03:50:29;;;;;;;4.32;3.20;;;;;;;12.77;70.56;102391.72;4994163;28;20031;-88
2022/08/08 03:52:55;;;;;;;6.03;3.00;;;;;;;12.76;70.85;102400.41;4994029;28;20033;-89
2022/08/08 03:55:23;;;;;;;4.22;2.92;;;;;;;12.76;71.02;102395.19;4994810;28;20030;-96
2022/08/08 03:57:53;;;;;;;3.83;2.90;;;;;;;12.77;71.06;102403.91;4996894;28;20026;-96
2022/08/08 04:00:21;;;;;;;5.25;3.00;;;;;;;12.75;71.16;102398.69;4995946;28;20027;-96
2022/08/08 04:03:05;;;;;;;5.55;3.10;;;;;;;12.73;71.13;102408.22;4994909;28;20029;-91
2022/08/08 04:05:34;;;;;;;3.92;2.97;;;;;;;12.73;71.35;102408.22;4994357;28;20027;-91
2022/08/08 04:08:01;;;;;;;4.72;2.97;;;;;;;12.73;71.27;102404.75;4993521;28;20033;-91
2022/08/08 04:10:28;;;;;;;3.63;2.90;;;;;;;12.72;71.32;102411.69;4994438;28;20036;-92
2022/08/08 04:12:54;;;;;;;3.30;2.70;;;;;;;12.72;71.38;102416.03;4993840;28;20510;-91
2022/08/08 04:15:20;;;;;;;3.88;2.85;;;;;;;12.70;71.48;102417.78;4993347;28;20031;-91
2022/08/08 04:17:45;;;;;;;3.83;2.80;;;;;;;12.71;71.41;102419.50;4994059;28;20386;-92
2022/08/08 04:20:11;;;;;;;4.00;2.93;;;;;;;12.72;71.83;102414.28;4994220;28;20555;-90
2022/08/08 04:22:37;;;;;;;4.13;2.97;;;;;;;12.70;71.54;102407.34;4993936;28;20037;-91
2022/08/08 04:25:04;;;;;;;3.95;3.03;;;;;;;12.70;71.49;102409.97;4997756;28;20034;-90
2022/08/08 04:27:30;;;;;;;;;;;;;;;12.70;71.84;102412.56;4998544;28;20034;-90
2022/08/08 04:29:55;;;;;;;4.40;3.13;;;;;;;12.67;71.60;102419.50;4997544;28;19972;-90
2022/08/08 04:32:20;;;;;;;3.53;2.90;;;;;;;12.69;71.77;102416.91;4997405;28;20057;-88
2022/08/08 04:34:45;;;;;;;4.20;3.00;;;;;;;12.69;71.77;102416.91;4997282;28;20025;-88
2022/08/08 04:37:11;;;;;;;4.63;3.27;;;;;;;12.67;71.80;102416.91;4996820;28;20027;-88
2022/08/08 04:39:37;;;;;;;4.13;2.93;;;;;;;12.68;72.06;102420.38;4997489;28;20033;-87
2022/08/08 04:42:02;;;;;;;4.63;3.30;;;;;;;12.71;71.88;102429.94;4996463;28;20035;-87
2022/08/08 04:44:33;;;;;;;4.40;3.20;;;;;;;12.69;71.89;102435.16;4996491;28;20105;-87
2022/08/08 04:46:59;;;;;;;5.32;3.35;;;;;;;12.73;72.06;102433.41;4997057;28;20034;-87
2022/08/08 04:49:24;;;;;;;5.47;3.17;;;;;;;12.73;72.23;102439.47;4997491;28;20023;-88
2022/08/08 04:51:49;;;;;;;4.23;2.97;;;;;;;12.76;72.33;102449.06;4996288;28;20057;-88
2022/08/08 04:54:15;;;;;;;4.37;3.10;;;;;;;12.79;72.38;102449.94;4997192;28;20552;-88
2022/08/08 04:56:40;;;;;;;3.60;3.00;;;;;;;12.81;72.50;102447.31;4996464;28;20033;-87
2022/08/08 04:59:05;;;;;;;3.63;2.80;;;;;;;12.81;72.29;102448.19;4996558;28;20100;-88
2022/08/08 05:01:31;;;;;;;3.73;2.80;;;;;;;12.81;72.27;102452.53;4996994;28;20037;-88
2022/08/08 05:03:56;;;;;;;3.80;2.87;;;;;;;12.84;72.16;102455.13;4996141;28;20133;-88
2022/08/08 05:06:22;;;;;;;3.57;2.93;;;;;;;12.87;72.54;102455.16;4996636;28;20046;-88
2022/08/08 05:08:48;;;;;;;4.40;2.90;;;;;;;12.88;72.34;102462.09;4996948;28;20105;-88
2022/08/08 05:11:13;;;;;;;5.20;3.10;;;;;;;12.92;72.53;102460.38;4996299;28;20038;-88
2022/08/08 05:13:39;;;;;;;3.70;2.97;;;;;;;12.96;72.59;102462.09;4997014;28;20030;-88
2022/08/08 05:16:05;;;;;;;3.95;3.00;;;;;;;12.99;72.55;102459.50;4996690;28;20022;-88
2022/08/08 05:18:32;;;;;;;3.30;2.67;;;;;;;13.04;72.60;102456.88;4995784;28;20382;-88
2022/08/08 05:21:00;;;;;;;3.58;2.75;;;;;;;13.07;72.87;102468.16;4996676;28;20030;-88
2022/08/08 05:23:25;;;;;;;4.43;2.90;;;;;;;13.12;72.54;102471.66;4996845;28;20026;-88
2022/08/08 05:25:51;;;;;;;3.47;2.80;;;;;;;13.17;72.51;102469.06;4995598;28;20030;-88
2022/08/08 05:28:17;;;;;;;3.20;2.80;;;;;;;13.23;72.70;102469.03;4996158;28;20033;-87
2022/08/08 05:30:42;;;;;;;3.40;2.80;;;;;;;13.29;72.40;102465.56;4996598;28;20121;-87
2022/08/08 05:33:21;;;;;;;2.50;2.30;;;;;;;13.32;72.44;102462.97;4987613;28;20555;-88
2022/08/08 05:35:48;;;;;;;2.55;2.33;;;;;;;13.38;72.97;102457.75;4995001;28;20022;-88
2022/08/08 05:38:16;;;;;;;;;;;;;;;13.47;72.69;102459.50;4996791;28;20478;-88
2022/08/08 05:41:03;;;;;;;3.03;2.42;;;;;;;13.53;73.08;102456.00;4995871;28;19914;-88
2022/08/08 05:43:30;;;;;;;2.83;2.50;;;;;;;13.59;72.91;102458.63;4976807;28;20062;-88
2022/08/08 05:45:57;;;;;;;2.80;2.30;;;;;;;13.65;74.23;102461.19;4994232;28;20049;-89
2022/08/08 05:48:23;;;;;;;2.53;2.20;;;;;;;13.71;74.54;102462.91;4975139;28;20031;-86
2022/08/08 05:51:05;;;;;;;1.97;1.80;;;;;;;13.77;75.81;102470.75;4976111;28;20077;-85
2022/08/08 05:53:30;;;;;;;3.25;2.70;;;;;;;13.82;78.55;102471.59;4975712;28;20475;-87
2022/08/08 05:55:57;;;;;;;5.57;3.70;;;;;;;13.92;80.56;102471.56;4984074;28;20072;-90
2022/08/08 05:58:27;;;;;;;5.05;3.78;;;;;;;14.00;79.61;102475.03;4995887;28;20054;-89
2022/08/08 06:00:55;;;;;;;5.13;3.50;;;;;;;14.02;77.56;102463.72;4995174;28;20399;-90
2022/08/08 06:03:22;;;;;;;4.80;2.90;;;;;;;14.08;75.69;102469.75;4996258;28;20395;-90
2022/08/08 06:06:00;;;;;;;4.90;2.72;;;;;;;14.17;78.71;102475.81;4996264;28;20102;-90
2022/08/08 06:08:28;;;;;;;3.38;2.90;;;;;;;14.25;77.90;102478.41;4994942;28;20038;-90
2022/08/08 06:10:56;;;;;;;3.53;2.78;;;;;;;14.32;78.29;102472.28;4996375;28;20030;-93
2022/08/08 06:13:22;;;;;;;2.88;2.50;;;;;;;14.40;76.97;102479.22;4992769;28;20038;-92
2022/08/08 06:16:01;;;;;;;7.03;3.67;;;;;;;14.49;79.43;102479.16;4995456;28;20030;-91
2022/08/08 06:18:28;;;;;;;3.75;2.92;;;;;;;14.55;77.10;102473.03;4996025;28;20273;-93
2022/08/08 06:20:56;;;;;;;4.13;2.83;;;;;;;14.64;77.90;102486.03;4995689;28;20049;-92
2022/08/08 06:23:23;;;;;;;2.72;2.42;;;;;;;14.72;76.87;102479.03;4995576;28;20030;-91
2022/08/08 06:26:10;;;;;;;5.20;3.17;;;;;;;14.86;77.64;102493.78;4995662;28;20033;-90
2022/08/08 06:28:50;;;;;;;3.50;2.70;;;;;;;14.98;76.35;102485.84;4995926;28;20026;-90
2022/08/08 06:31:20;;;;;;;4.93;3.15;;;;;;;15.08;77.66;102490.13;4997214;28;20024;-90
2022/08/08 06:34:06;;;;;;;4.65;3.05;;;;;;;15.20;77.14;102499.59;4996455;28;20026;-90
2022/08/08 06:36:36;;;;;;;;;;;;;;;15.29;76.53;102501.28;4995385;28;20033;-89
2022/08/08 06:39:03;;;;;;;3.33;2.60;;;;;;;15.40;75.76;102509.03;4994124;28;19913;-90
2022/08/08 06:41:32;;;;;;;2.58;2.33;;;;;;;15.50;75.86;102508.09;4994999;28;20042;-90
2022/08/08 06:44:10;;;;;;;2.70;2.45;;;;;;;15.64;75.99;102505.31;4993755;28;20050;-90
2022/08/08 06:46:41;;;;;;;4.05;2.80;;;;;;;15.83;75.74;102500.75;4995326;28;20025;-88
2022/08/08 06:49:19;;;;;;;4.80;2.90;;;;;;;16.95;75.16;102500.22;4994905;28;20031;-88
2022/08/08 06:51:48;;;;;;;7.10;3.53;;;;;;;18.36;70.19;102508.16;4995238;28;20033;-86
2022/08/08 06:54:14;;;;;;;8.07;4.40;;;;;;;20.17;67.99;102508.03;4994532;28;20037;-85
2022/08/08 06:56:48;;;;;;;5.50;3.90;;;;;;;22.29;63.90;102509.81;4994110;28;20023;-87
2022/08/08 06:59:15;;;;;;;7.40;4.25;;;;;;;23.97;55.78;102506.44;4994499;28;20046;-87
2022/08/08 07:01:50;;;;;;;6.07;3.67;;;;;;;24.95;57.55;102508.00;4994518;28;20033;-86
2022/08/08 07:04:24;;;;;;;11.30;6.10;;;;;;;25.24;50.40;102506.53;4993387;28;20030;-87
2022/08/08 07:06:58;;;;;;;9.07;4.90;;;;;;;25.42;51.52;102511.84;4994370;28;20041;-88
2022/08/08 07:09:32;;;;;;;9.73;5.43;;;;;;;25.94;50.11;102510.88;4994785;28;20022;-87
2022/08/08 07:11:58;;;;;;;9.48;5.07;;;;;;;26.18;47.57;102513.16;4993278;28;20041;-86
2022/08/08 07:14:55;;;;;;;6.43;4.00;;;;;;;25.82;49.01;102516.84;4994341;28;20033;-88
2022/08/08 07:17:23;;;;;;;6.55;3.90;;;;;;;25.38;49.12;102519.09;4992926;28;20483;-87
2022/08/08 07:20:01;;;;;;;6.93;4.28;;;;;;;24.49;48.51;102519.91;4994139;28;20026;-88
2022/08/08 07:22:45;;;;;;;9.77;4.88;;;;;;;23.49;51.23;102524.41;4993911;28;20065;-88
2022/08/08 07:25:10;;;;;;;5.75;3.72;;;;;;;22.75;51.99;102525.69;4992847;28;20037;-87
2022/08/08 07:27:41;;;;;;;8.13;4.00;;;;;;;22.00;54.24;102527.66;4994583;28;20055;-88
2022/08/08 07:30:08;;;;;;;5.45;3.50;;;;;;;21.52;54.32;102524.03;4994026;28;20022;-86
2022/08/08 07:32:33;;;;;;;4.32;2.92;;;;;;;21.27;56.04;102530.19;4992098;28;20176;-86
2022/08/08 07:35:00;;;;;;;4.93;2.90;;;;;;;20.96;56.21;102528.53;4993554;28;20113;-86
2022/08/08 07:37:27;;;;;;;3.78;3.00;;;;;;;20.71;57.68;102523.16;4994397;28;20097;-88
2022/08/08 07:39:55;;;;;;;3.42;2.45;;;;;;;20.67;58.68;102535.56;4993092;28;20027;-86
2022/08/08 07:42:22;;;;;;;3.03;2.50;;;;;;;20.63;59.28;102526.91;4993360;28;20038;-87
2022/08/08 07:44:47;;;;;;;3.13;2.20;;;;;;;20.61;57.90;102531.34;4994037;28;20034;-87
2022/08/08 07:47:13;;;;;;;4.83;2.77;;;;;;;20.48;59.38;102525.59;4992300;28;20049;-87
2022/08/08 07:49:38;;;;;;;3.97;2.50;;;;;;;20.33;58.53;102528.69;4993297;28;20088;-86
2022/08/08 07:52:07;;;;;;;2.47;2.10;;;;;;;20.28;59.17;102533.22;4993668;28;20105;-89
2022/08/08 07:54:46;;;;;;;2.03;1.92;;;;;;;20.26;59.51;102528.00;4992959;28;20479;-86
2022/08/08 07:57:35;;;;;;;2.90;2.50;;;;;;;20.16;58.89;102537.94;4993196;28;20471;-87
2022/08/08 08:00:04;;;;;;;4.95;2.95;;;;;;;20.13;58.51;102538.06;4992184;28;20050;-86
2022/08/08 08:02:38;;;;;;;3.00;2.30;;;;;;;20.16;59.35;102539.72;4993594;28;20394;-87
2022/08/08 08:05:16;;;;;;;4.70;2.60;;;;;;;20.13;58.82;102535.41;4993347;28;20029;-87
2022/08/08 08:07:44;;;;;;;4.57;2.33;;;;;;;20.16;59.20;102540.56;4992588;28;20038;-88
2022/08/08 08:10:11;;;;;;;3.58;2.35;;;;;;;20.25;59.17;102538.59;4992766;28;20038;-87
2022/08/08 08:12:37;;;;;;;5.15;2.20;;;;;;;20.29;58.65;102543.75;4993184;28;20038;-86
2022/08/08 08:15:05;;;;;;;4.17;2.20;;;;;;;20.35;57.77;102535.63;4992584;28;20057;-89
2022/08/08 08:17:33;;;;;;;4.82;2.08;;;;;;;20.40;57.99;102532.00;4993271;28;20479;-88
2022/08/08 08:20:07;;;;;;;1.50;1.40;;;;;;;20.48;58.31;102536.16;4993118;28;20048;-88
2022/08/08 08:22:45;;;;;;;3.55;2.03;;;;;;;20.60;57.48;102545.44;4993110;28;20027;-88
2022/08/08 08:25:16;;;;;;;3.70;2.30;;;;;;;20.56;56.97;102535.91;4993237;28;20072;-88
2022/08/08 08:27:47;;;;;;;5.22;2.20;;;;;;;20.52;57.13;102537.78;4992727;28;20023;-87
2022/08/08 08:30:13;;;;;;;2.35;1.90;;;;;;;20.62;57.63;102548.91;4992197;28;20033;-87
2022/08/08 08:32:38;;;;;;;1.83;1.70;;;;;;;20.74;57.25;102549.44;4993820;28;20022;-87
2022/08/08 08:35:16;;;;;;;2.17;1.90;;;;;;;20.89;55.76;102550.75;4992458;28;20125;-87
2022/08/08 08:37:42;;;;;;;2.50;1.80;;;;;;;21.00;56.27;102550.44;4993350;28;20050;-89
2022/08/08 08:40:08;;;;;;;4.43;2.50;;;;;;;21.06;54.33;102548.44;4992993;28;20058;-89
2022/08/08 08:42:33;;;;;;;4.15;2.03;;;;;;;21.11;56.10;102543.88;4992118;28;20038;-89
2022/08/08 08:45:06;;;;;;;2.90;1.80;;;;;;;21.24;55.60;102549.59;4993333;28;20030;-88
2022/08/08 08:47:32;;;;;;;2.58;2.00;;;;;;;21.31;53.77;102550.25;4993058;28;20022;-87
2022/08/08 08:50:12;;;;;;;2.65;2.00;;;;;;;21.32;53.08;102559.06;4992197;28;20363;-88
2022/08/08 08:52:44;;;;;;;1.90;1.80;;;;;;;21.35;54.40;102561.59;4993083;28;20034;-88
2022/08/08 08:55:19;;;;;;;1.80;1.70;;;;;;;21.43;54.98;102557.78;4992725;28;20097;-88
2022/08/08 08:57:55;;;;;;;2.88;1.52;;;;;;;21.47;53.29;102557.69;4992292;28;20053;-87
2022/08/08 09:00:20;;;;;;;1.98;1.75;;;;;;;21.49;53.60;102561.13;4992959;28;20030;-88
2022/08/08 09:03:07;;;;;;;1.53;1.43;;;;;;;21.69;54.58;102555.16;4993182;28;20450;-88
2022/08/08 09:05:56;;;;;;;3.08;2.00;;;;;;;21.81;51.42;102567.94;4992893;28;20340;-86
2022/08/08 09:08:24;;;;;;;2.85;1.90;;;;;;;21.81;51.71;102562.66;4992512;28;20035;-88
2022/08/08 09:10:50;;;;;;;2.75;1.70;;;;;;;21.94;51.75;102571.03;4995735;28;20097;-87
2022/08/08 09:13:17;;;;;;;1.83;1.73;;;;;;;22.06;52.61;102553.84;4996333;28;20414;-88
2022/08/08 09:15:59;;;;;;;2.13;1.60;;;;;;;22.28;52.04;102553.94;4996107;28;20495;-88
2022/08/08 09:18:25;;;;;;;1.70;1.60;;;;;;;22.41;52.36;102564.06;4995977;28;20037;-87
2022/08/08 09:20:52;;;;;;;1.15;1.15;;;;;;;22.54;51.89;102549.44;4996161;28;20041;-86
2022/08/08 09:23:18;;;;;;;2.20;1.80;;;;;;;22.57;49.02;102564.34;4996355;28;20022;-85
2022/08/08 09:26:15;;;;;;;2.15;1.55;;;;;;;22.33;50.53;102556.41;4995599;28;20026;-88
2022/08/08 09:28:59;;;;;;;2.33;1.60;;;;;;;22.42;51.25;102558.72;4996449;28;20033;-88
2022/08/08 09:31:49;;;;;;;3.53;1.90;;;;;;;22.59;51.31;102560.72;4995650;28;20463;-88
2022/08/08 09:34:17;;;;;;;2.78;2.00;;;;;;;22.77;49.02;102556.47;4996234;28;20033;-88
2022/08/08 09:36:44;;;;;;;2.67;1.60;;;;;;;22.95;50.92;102559.28;4996002;28;20023;-88
2022/08/08 09:39:10;;;;;;;3.30;2.10;;;;;;;23.08;50.38;102559.69;4995401;28;20438;-88
2022/08/08 09:41:41;;;;;;;3.10;1.73;;;;;;;23.17;50.67;102559.28;4996043;28;20026;-87
2022/08/08 09:44:23;;;;;;;1.50;1.40;;;;;;;23.32;50.36;102556.94;4996384;28;20493;-88
2022/08/08 09:46:49;;;;;;;1.40;1.30;;;;;;;23.49;50.33;102553.56;4995920;28;20054;-90
2022/08/08 09:49:19;;;;;;;2.55;1.40;;;;;;;23.71;48.72;102558.81;4996200;28;20034;-89
2022/08/08 09:51:51;;;;;;;2.53;1.45;;;;;;;23.81;47.32;102552.16;4996118;28;20026;-88
2022/08/08 09:54:19;;;;;;;1.40;1.17;;;;;;;23.96;49.16;102555.94;4995721;28;20501;-90
2022/08/08 09:56:46;;;;;;;1.73;1.10;;;;;;;24.17;47.21;102556.78;4996284;28;20478;-91
2022/08/08 09:59:22;;;;;;;2.22;1.40;;;;;;;24.15;47.58;102560.44;4994711;28;20062;-88
2022/08/08 10:01:51;;;;;;;1.60;1.40;;;;;;;23.88;48.24;102553.59;4996068;28;20109;-89
2022/08/08 10:04:21;;;;;;;1.15;1.00;;;;;;;23.68;46.79;102559.81;4994385;28;20048;-87
2022/08/08 10:06:47;;;;;;;1.35;1.27;;;;;;;23.61;48.45;102553.03;4993232;28;20285;-89
2022/08/08 10:09:12;;;;;;;1.27;1.27;;;;;;;23.82;49.30;102553.00;4976020;28;20551;-91
2022/08/08 10:11:38;;;;;;;1.17;1.07;;;;;;;24.18;48.06;102557.63;4990241;28;20434;-91
2022/08/08 10:14:06;;;;;;;3.75;1.60;;;;;;;24.29;43.98;102567.75;4993616;28;20069;-91
2022/08/08 10:16:41;;;;;;;2.47;1.48;;;;;;;24.14;45.72;102567.53;4995073;28;20026;-91
2022/08/08 10:19:10;;;;;;;4.03;1.90;;;;;;;23.84;46.45;102562.66;4994505;28;20025;-90
2022/08/08 10:21:37;;;;;;;3.53;1.90;;;;;;;23.45;47.34;102558.16;4994544;28;20371;-90
2022/08/08 10:24:10;;;;;;;1.60;1.50;;;;;;;23.59;48.83;102552.25;4995486;28;20534;-90
2022/08/08 10:26:43;;;;;;;2.05;1.45;;;;;;;23.93;45.90;102557.84;4995583;28;20543;-92
2022/08/08 10:29:11;;;;;;;2.40;1.63;;;;;;;24.05;46.23;102549.38;4995338;28;20030;-92
2022/08/08 10:34:23;;;;;;;;;;;;;;;23.79;45.92;102556.66;4995800;28;20040;-92
2022/08/08 10:36:49;;;;;;;1.25;1.20;;;;;;;23.71;47.08;102558.81;4994701;28;19956;-91
2022/08/08 10:39:20;;;;;;;0.93;0.93;;;;;;;23.71;47.02;102556.16;4995762;28;20041;-91
2022/08/08 10:41:55;;;;;;;0.70;0.70;;;;;;;23.72;46.80;102552.59;4994164;28;20030;-92
2022/08/08 10:44:33;;;;;;;1.35;0.98;;;;;;;23.82;46.70;102553.91;4994988;28;20068;-92
2022/08/08 10:47:12;;;;;;;1.00;0.95;;;;;;;24.08;45.24;102557.19;4994720;28;20045;-89
2022/08/08 10:49:40;;;;;;;0.88;0.88;;;;;;;24.14;45.53;102556.06;4994694;28;20034;-89
2022/08/08 10:52:05;;;;;;;0.85;0.85;;;;;;;24.30;46.38;102543.78;4995057;28;20053;-91
2022/08/08 10:54:31;;;;;;;1.40;0.77;;;;;;;24.63;44.21;102545.78;4995156;28;20448;-89
2022/08/08 10:57:03;;;;;;;2.87;1.20;;;;;;;24.64;43.03;102539.53;4994387;28;20022;-92
2022/08/08 10:59:28;;;;;;;0.95;0.82;;;;;;;24.66;45.08;102544.75;4995065;28;20061;-91
2022/08/08 11:01:54;;;;;;;1.70;1.33;;;;;;;24.67;45.53;102547.38;4994342;28;20022;-89
2022/08/08 11:04:19;;;;;;;2.37;1.10;;;;;;;24.64;45.96;102539.53;4994695;28;20077;-94
2022/08/08 11:06:44;;;;;;;0.95;0.95;;;;;;;24.60;44.20;102542.41;4994428;28;20034;-86
2022/08/08 11:09:10;;;;;;;0.90;0.90;;;;;;;24.48;44.54;102539.41;4985758;28;20022;-86
2022/08/08 11:11:41;;;;;;;1.63;1.02;;;;;;;24.37;45.72;102544.38;4993000;28;20138;-87
2022/08/08 11:14:08;;;;;;;1.23;1.13;;;;;;;24.25;44.22;102539.63;4993724;28;20050;-86
2022/08/08 11:16:35;;;;;;;1.45;1.13;;;;;;;24.23;44.15;102539.72;4993451;28;20157;-86
2022/08/08 11:19:03;;;;;;;0.80;0.80;;;;;;;24.28;43.50;102536.84;4991542;28;20030;-86
2022/08/08 11:21:33;;;;;;;0.80;0.80;;;;;;;24.41;45.96;102534.47;4993389;28;20088;-86
2022/08/08 11:24:03;;;;;;;1.23;1.13;;;;;;;24.68;44.74;102524.31;4993531;28;20054;-87
2022/08/08 11:26:30;;;;;;;1.25;0.70;;;;;;;25.00;44.43;102529.84;4994222;28;20027;-88
2022/08/08 11:29:02;;;;;;;1.35;1.00;;;;;;;25.27;42.93;102521.44;4994979;28;20057;-92
2022/08/08 11:31:33;;;;;;;0.73;0.73;;;;;;;25.38;43.57;102518.25;4994623;28;20546;-90
2022/08/08 11:34:02;;;;;;;1.08;1.08;;;;;;;25.36;43.13;102518.31;4993962;28;20032;-89
2022/08/08 11:36:28;;;;;;;0.80;0.80;;;;;;;25.07;39.70;102520.66;4995128;28;20466;-91
2022/08/08 11:38:55;;;;;;;1.35;1.25;;;;;;;24.88;40.41;102514.56;4994396;28;20472;-91
2022/08/08 11:41:22;;;;;;;1.08;0.98;;;;;;;24.80;40.30;102523.75;4994391;28;20173;-90
2022/08/08 11:43:48;;;;;;;1.17;0.90;;;;;;;24.45;40.58;102518.31;4994095;28;20027;-91
2022/08/08 11:46:14;;;;;;;1.27;1.13;;;;;;;24.30;40.85;102527.88;4994328;28;20031;-91
2022/08/08 11:48:40;;;;;;;1.40;0.82;;;;;;;24.32;42.53;102527.81;4994302;28;20105;-89
2022/08/08 11:51:07;;;;;;;1.05;1.05;;;;;;;24.43;43.09;102512.22;4992588;28;20046;-87
2022/08/08 11:53:33;;;;;;;0.73;0.60;;;;;;;24.56;42.10;102509.88;4993518;28;20375;-86
2022/08/08 11:55:58;;;;;;;0.80;0.80;;;;;;;24.69;40.60;102514.59;4993219;28;20022;-87
2022/08/08 11:58:33;;;;;;;1.00;1.00;;;;;;;24.78;41.77;102508.84;4993741;28;20045;-88
2022/08/08 12:01:03;;;;;;;3.33;1.30;;;;;;;24.98;40.76;102507.84;4993137;28;20364;-87
2022/08/08 12:03:35;;;;;;;1.35;0.90;;;;;;;25.32;39.60;102506.13;4993616;28;20030;-87